createdAt,value
2022-10-17T00:02:13.695Z,59.89
2022-10-17T00:07:15.581Z,59.50
2022-10-17T00:12:17.462Z,58.53
2022-10-17T00:17:19.621Z,58.33
2022-10-17T00:22:21.568Z,58.45
2022-10-17T00:27:23.371Z,58.25
2022-10-17T00:32:25.536Z,58.47
2022-10-17T00:37:27.715Z,59.31
2022-10-17T00:42:30.666Z,62.38
2022-10-17T00:47:34.048Z,71.92
2022-10-17T00:52:36.385Z,73.36
2022-10-17T00:57:38.545Z,78.53
2022-10-17T01:02:40.545Z,79.76
2022-10-17T01:07:43.486Z,81.72
2022-10-17T01:13:16.222Z,82.14
2022-10-17T01:18:17.983Z,84.14
2022-10-17T01:23:25.601Z,85.34
2022-10-17T01:28:49.188Z,86.34
2022-10-17T01:34:26.596Z,86.07
2022-10-17T01:39:45.539Z,86.78
2022-10-17T01:45:10.435Z,88.22
2022-10-17T01:50:17.501Z,88.57
2022-10-17T01:55:22.954Z,88.87
2022-10-17T02:00:27.097Z,88.39
2022-10-17T02:05:33.386Z,87.75
2022-10-17T02:10:56.614Z,87.73
2022-10-17T02:16:36.057Z,87.78
2022-10-17T02:21:44.078Z,88.29
2022-10-17T02:26:57.007Z,87.08
2022-10-17T02:32:03.267Z,87.86
2022-10-17T02:37:07.711Z,88.75
2022-10-17T02:42:12.184Z,87.91
2022-10-17T02:47:27.522Z,88.85
2022-10-17T02:52:37.463Z,88.69
2022-10-17T02:57:43.283Z,88.19
2022-10-17T03:02:47.811Z,88.84
2022-10-17T03:07:50.056Z,89.21
2022-10-17T03:12:52.135Z,87.76
2022-10-17T03:17:55.961Z,87.92
2022-10-17T03:22:57.916Z,88.79
2022-10-17T03:28:01.631Z,88.30
2022-10-17T03:33:03.869Z,88.27
2022-10-17T03:38:06.121Z,88.34
2022-10-17T03:43:08.403Z,87.81
2022-10-17T03:48:10.314Z,87.23
2022-10-17T03:53:12.199Z,87.33
2022-10-17T03:58:14.647Z,87.23
2022-10-17T04:03:17.293Z,87.25
2022-10-17T04:08:19.819Z,86.41
2022-10-17T04:13:45.432Z,86.64
2022-10-17T04:18:47.404Z,86.74
2022-10-17T04:23:49.244Z,86.51
2022-10-17T04:29:04.737Z,86.21
2022-10-17T04:34:07.099Z,86.14
2022-10-17T04:39:09.402Z,85.47
2022-10-17T04:44:11.790Z,85.47
2022-10-17T04:49:17.901Z,85.84
2022-10-17T04:54:23.482Z,85.76
2022-10-17T04:59:34.646Z,85.82
2022-10-17T05:04:59.520Z,86.23
2022-10-17T05:10:01.635Z,86.10
2022-10-17T05:15:05.381Z,86.64
2022-10-17T05:20:11.176Z,86.62
2022-10-17T05:25:13.806Z,85.82
2022-10-17T05:30:16.024Z,84.71
2022-10-17T05:35:18.204Z,85.26
2022-10-17T05:40:21.732Z,84.87
2022-10-17T05:45:24.128Z,85.31
2022-10-17T05:50:26.019Z,85.23
2022-10-17T05:55:40.873Z,84.76
2022-10-17T06:00:42.796Z,84.51
2022-10-17T06:05:45.808Z,85.00
2022-10-17T06:10:50.834Z,85.20
2022-10-17T06:15:52.953Z,84.99
2022-10-17T06:20:55.073Z,84.69
2022-10-17T06:26:01.476Z,84.62
2022-10-17T06:31:08.968Z,85.21
2022-10-17T06:36:13.790Z,84.88
2022-10-17T06:41:18.730Z,85.12
2022-10-17T06:46:21.244Z,85.16
2022-10-17T06:51:35.618Z,85.18
2022-10-17T06:56:38.371Z,84.66
2022-10-17T07:01:54.149Z,84.74
2022-10-17T07:12:08.558Z,83.75
2022-10-17T07:17:10.907Z,84.17
2022-10-17T07:22:13.712Z,83.70
2022-10-17T07:27:19.268Z,84.06
2022-10-17T07:32:22.247Z,83.42
2022-10-17T07:37:24.234Z,82.97
2022-10-17T07:42:30.287Z,82.88
2022-10-17T07:47:35.889Z,82.29
2022-10-17T07:52:39.990Z,80.55
2022-10-17T07:57:41.810Z,81.45
2022-10-17T08:02:43.885Z,84.14
2022-10-17T08:07:45.711Z,88.33
2022-10-17T08:12:47.679Z,90.13
2022-10-17T08:17:49.783Z,91.55
2022-10-17T08:22:53.394Z,91.58
2022-10-17T08:27:55.329Z,92.17
2022-10-17T08:32:57.390Z,92.48
2022-10-17T08:38:01.805Z,92.45
2022-10-17T08:43:23.953Z,92.43
2022-10-17T08:48:27.707Z,92.15
2022-10-17T08:53:40.431Z,91.39
2022-10-17T08:58:42.232Z,90.43
2022-10-17T09:04:08.724Z,90.33
2022-10-17T09:09:22.633Z,90.13
2022-10-17T09:14:38.453Z,88.73
2022-10-17T09:19:44.514Z,87.38
2022-10-17T09:24:58.748Z,85.96
2022-10-17T09:30:26.905Z,86.42
2022-10-17T09:35:38.465Z,83.58
2022-10-17T09:40:41.375Z,84.55
2022-10-17T09:46:08.557Z,84.04
2022-10-17T09:51:15.154Z,82.87
2022-10-17T09:56:27.238Z,82.75
2022-10-17T10:01:31.345Z,82.89
2022-10-17T10:06:33.219Z,81.00
2022-10-17T10:11:51.943Z,82.98
2022-10-17T10:16:53.919Z,79.88
2022-10-17T10:21:58.192Z,78.75
2022-10-17T10:27:02.787Z,74.03
2022-10-17T10:32:16.303Z,70.11
2022-10-17T10:37:27.290Z,66.29
2022-10-17T10:42:40.012Z,66.46
2022-10-17T10:48:03.964Z,63.25
2022-10-17T10:53:15.208Z,61.36
2022-10-17T10:58:42.080Z,60.26
2022-10-17T11:04:22.991Z,60.60
2022-10-17T11:09:45.603Z,61.42
2022-10-17T11:14:59.827Z,62.20
2022-10-17T11:20:29.534Z,62.75
2022-10-17T11:25:34.793Z,62.00
2022-10-17T11:35:53.859Z,63.61
2022-10-17T11:40:58.866Z,60.95
2022-10-17T11:46:24.826Z,61.06
2022-10-17T11:57:19.325Z,58.95
2022-10-17T12:02:50.466Z,61.22
2022-10-17T12:07:55.386Z,58.25
2022-10-17T12:12:57.316Z,59.67
2022-10-17T12:18:02.710Z,60.41
2022-10-17T12:23:13.381Z,60.00
2022-10-17T12:28:28.110Z,56.97
2022-10-17T12:33:36.084Z,58.35
2022-10-17T12:38:38.108Z,58.65
2022-10-17T12:43:54.144Z,56.79
2022-10-17T12:49:01.304Z,55.15
2022-10-17T12:54:12.826Z,53.53
2022-10-17T12:59:43.426Z,50.96
2022-10-17T13:04:45.799Z,52.67
2022-10-17T13:09:48.316Z,53.54
2022-10-17T13:14:51.885Z,53.27
2022-10-17T13:19:54.391Z,50.88
2022-10-17T13:25:14.451Z,50.07
2022-10-17T13:30:27.940Z,52.00
2022-10-17T13:41:30.047Z,49.63
2022-10-17T13:46:39.488Z,49.99
2022-10-17T13:51:47.032Z,49.04
2022-10-17T13:56:57.259Z,51.58
2022-10-17T14:02:01.704Z,50.49
2022-10-17T14:07:03.797Z,52.50
2022-10-17T14:13:24.962Z,49.18
2022-10-17T14:18:36.178Z,51.76
2022-10-17T14:23:42.348Z,51.44
2022-10-17T14:28:47.425Z,48.08
2022-10-17T14:33:51.141Z,48.31
2022-10-17T14:38:53.546Z,49.01
2022-10-17T14:44:04.901Z,48.63
2022-10-17T14:49:08.971Z,47.76
2022-10-17T14:54:20.350Z,45.95
2022-10-17T14:59:52.331Z,47.21
2022-10-17T15:04:49.026Z,46.94
2022-10-17T15:09:52.791Z,47.06
2022-10-17T15:14:54.950Z,45.73
2022-10-17T15:19:57.521Z,43.10
2022-10-17T15:24:59.458Z,43.10
2022-10-17T15:30:01.348Z,43.11
2022-10-17T15:35:03.291Z,42.35
2022-10-17T15:40:06.358Z,43.44
2022-10-17T15:45:11.116Z,41.94
2022-10-17T15:50:17.914Z,44.06
2022-10-17T15:55:21.678Z,44.41
2022-10-17T16:00:24.839Z,42.75
2022-10-17T16:05:27.157Z,43.41
2022-10-17T16:10:29.217Z,46.22
2022-10-17T16:15:31.138Z,42.63
2022-10-17T16:20:33.085Z,43.48
2022-10-17T16:25:35.206Z,44.58
2022-10-17T16:30:46.423Z,47.69
2022-10-17T16:35:49.427Z,47.62
2022-10-17T16:40:51.489Z,48.61
2022-10-17T16:45:53.332Z,49.83
2022-10-17T16:50:55.220Z,50.31
2022-10-17T16:56:04.597Z,50.87
2022-10-17T17:01:11.694Z,52.65
2022-10-17T17:06:16.195Z,53.36
2022-10-17T17:11:19.651Z,53.83
2022-10-17T17:16:22.890Z,54.91
2022-10-17T17:21:25.016Z,55.88
2022-10-17T17:26:29.149Z,56.39
2022-10-17T17:31:32.914Z,56.30
2022-10-17T17:36:36.712Z,56.47
2022-10-17T17:41:39.879Z,56.92
2022-10-17T17:46:43.776Z,57.59
2022-10-17T17:51:46.736Z,57.67
2022-10-17T17:56:48.742Z,58.06
2022-10-17T18:01:50.575Z,59.24
2022-10-17T18:06:52.515Z,58.26
2022-10-17T18:11:54.369Z,58.97
2022-10-17T18:16:56.273Z,58.76
2022-10-17T18:21:59.219Z,58.14
2022-10-17T18:27:01.414Z,57.87
2022-10-17T18:32:04.193Z,59.42
2022-10-17T18:37:06.178Z,60.03
2022-10-17T18:42:09.137Z,60.16
2022-10-17T18:47:11.411Z,59.04
2022-10-17T18:52:13.304Z,60.44
2022-10-17T18:57:17.161Z,59.84
2022-10-17T19:02:19.088Z,60.77
2022-10-17T19:07:20.996Z,60.54
2022-10-17T19:12:22.879Z,60.89
2022-10-17T19:17:25.253Z,60.85
2022-10-17T19:22:28.484Z,61.10
2022-10-17T19:27:30.600Z,61.38
2022-10-17T19:32:33.185Z,61.29
2022-10-17T19:37:35.962Z,61.53
2022-10-17T19:42:37.939Z,61.98
2022-10-17T19:47:40.152Z,62.17
2022-10-17T19:52:42.140Z,62.48
2022-10-17T19:57:44.187Z,62.82
2022-10-17T20:02:46.219Z,62.99
2022-10-17T20:07:48.312Z,62.71
2022-10-17T20:13:15.712Z,62.95
2022-10-17T20:18:17.757Z,63.54
2022-10-17T20:23:19.977Z,63.83
2022-10-17T20:28:21.955Z,64.43
2022-10-17T20:33:27.311Z,63.95
2022-10-17T20:38:33.211Z,64.00
2022-10-17T20:43:35.684Z,64.24
2022-10-17T20:48:38.060Z,64.27
2022-10-17T20:53:39.998Z,64.41
2022-10-17T20:58:42.096Z,64.74
2022-10-17T21:03:46.557Z,64.59
2022-10-17T21:09:52.624Z,64.62
2022-10-17T21:14:54.528Z,65.24
2022-10-17T21:19:56.639Z,65.23
2022-10-17T21:24:58.608Z,65.04
2022-10-17T21:30:00.679Z,65.23
2022-10-17T21:35:02.607Z,65.22
2022-10-17T21:40:05.274Z,65.81
2022-10-17T21:45:15.042Z,66.11
2022-10-17T21:50:18.026Z,66.56
2022-10-17T21:55:20.080Z,66.33
2022-10-17T22:00:22.398Z,66.13
2022-10-17T22:05:24.372Z,66.18
2022-10-17T22:10:26.861Z,66.04
2022-10-17T22:15:29.744Z,65.99
2022-10-17T22:20:34.205Z,66.36
2022-10-17T22:25:36.195Z,66.31
2022-10-17T22:30:38.154Z,66.32
2022-10-17T22:35:40.071Z,66.73
2022-10-17T22:40:45.027Z,66.97
2022-10-17T22:45:59.178Z,67.10
2022-10-17T22:51:02.249Z,67.37
2022-10-17T22:56:07.388Z,67.51
2022-10-17T23:01:13.402Z,67.33
2022-10-17T23:06:15.651Z,67.38
2022-10-17T23:11:17.962Z,67.78
2022-10-17T23:16:19.741Z,67.64
2022-10-17T23:21:21.685Z,67.51
2022-10-17T23:26:23.631Z,67.67
2022-10-17T23:31:25.655Z,67.74
2022-10-17T23:36:27.785Z,68.07
2022-10-17T23:41:29.609Z,68.33
2022-10-17T23:46:31.673Z,68.47
2022-10-17T23:51:33.929Z,68.78
2022-10-17T23:56:35.831Z,68.92
